Aviation Digital Data Service (ADDS)

Output produced by METARs form (2315 UTC 18 April 2014)
found at http://aviationweather.gov/adds/metars/
 
KACY 181720Z 1818/1918 11009KT P6SM SCT030 BKN250 
     TEMPO 1818/1820 BKN030 
     FM182100 15008KT P6SM BKN250 
     FM190300 VRB03KT P6SM BKN250 
     FM191300 35012G17KT P6SM SKC